Time;durP1;ratioP1;P1;durP2;ratioP2;P2;SDS_P1;SDS_P2;PMS_P1;PMS_P2;Temp;Humidity;BMP_temperature;BMP_pressure;BME280_temperature;BME280_humidity;BME280_pressure;Samples;Min_cycle;Max_cycle;Signal;HPM_P1;HPM_P2
2022/11/13 00:02:18;;;;;;;;;;;;;;;8.44;83.26;101878.79;1787375;80;21366;-88
2022/11/13 00:05:06;;;;;;;29.95;19.80;;;;;;;8.43;83.16;101884.94;1784304;80;21163;-88
2022/11/13 00:07:51;;;;;;;32.38;18.77;;;;;;;8.43;83.16;101880.55;1784372;80;20931;-90
2022/11/13 00:10:37;;;;;;;30.52;19.95;;;;;;;8.43;83.16;101881.86;1784398;80;20975;-88
2022/11/13 00:13:22;;;;;;;31.82;19.82;;;;;;;8.46;83.13;101884.83;1784508;80;20971;-88
2022/11/13 00:16:10;;;;;;;27.45;18.07;;;;;;;8.48;83.08;101883.03;1784674;80;21228;-88
2022/11/13 00:18:55;;;;;;;31.73;20.95;;;;;;;8.48;83.09;101877.34;1784605;80;21278;-91
2022/11/13 00:21:42;;;;;;;29.02;19.75;;;;;;;8.49;83.09;101875.14;1784405;80;21374;-88
2022/11/13 00:25:54;;;;;;;31.20;20.43;;;;;;;8.57;83.03;101868.36;1798362;79;22688;-88
2022/11/13 00:28:39;;;;;;;27.48;19.98;;;;;;;8.53;83.03;101866.73;1758739;81;20986;-89
2022/11/13 00:31:27;;;;;;;30.02;20.10;;;;;;;8.55;83.05;101858.86;1758646;80;21255;-87
2022/11/13 00:34:12;;;;;;;34.08;20.85;;;;;;;8.58;83.12;101860.94;1758674;80;20932;-88
2022/11/13 00:36:58;;;;;;;28.67;19.87;;;;;;;8.61;83.19;101861.28;1758737;80;20885;-88
2022/11/13 00:39:43;;;;;;;31.68;20.77;;;;;;;8.62;83.22;101853.37;1758633;80;20975;-87
2022/11/13 00:42:27;;;;;;;;;;;;;;;8.65;83.35;101849.83;1761322;80;20856;-88
2022/11/13 00:45:13;;;;;;;30.43;22.52;;;;;;;8.66;83.44;101847.59;1758897;81;21334;-89
2022/11/13 00:47:57;;;;;;;31.37;19.87;;;;;;;8.68;83.61;101848.41;1760127;81;20884;-86
2022/11/13 00:50:43;;;;;;;35.45;21.73;;;;;;;8.69;83.71;101843.56;1760569;81;20947;-88
2022/11/13 00:53:28;;;;;;;34.58;23.12;;;;;;;8.67;83.82;101841.02;1725669;78;20893;-87
2022/11/13 00:56:13;;;;;;;29.82;21.33;;;;;;;8.70;83.99;101834.83;1718167;81;20939;-88
2022/11/13 00:58:58;;;;;;;31.80;21.07;;;;;;;8.73;84.05;101830.80;1756654;81;21113;-87
2022/11/13 01:01:44;;;;;;;33.98;22.75;;;;;;;8.75;84.15;101824.22;1755267;81;20923;-88
2022/11/13 01:04:28;;;;;;;;;;;;;;;8.76;84.29;101825.48;1756719;81;20966;-88
2022/11/13 01:07:13;;;;;;;33.47;23.87;;;;;;;8.77;84.37;101828.95;1755041;81;20079;-88
2022/11/13 01:09:59;;;;;;;37.55;22.80;;;;;;;8.76;84.52;101825.91;1754480;81;20907;-89
2022/11/13 01:12:46;;;;;;;33.13;22.15;;;;;;;8.77;84.70;101826.33;1754169;81;21153;-89
2022/11/13 01:15:30;;;;;;;32.67;22.25;;;;;;;8.75;84.83;101826.37;1754136;81;21318;-89
2022/11/13 01:18:17;;;;;;;35.28;23.92;;;;;;;8.77;85.05;101829.80;1754254;81;20883;-88
2022/11/13 01:21:05;;;;;;;38.83;25.27;;;;;;;8.80;85.17;101821.84;1754219;81;20935;-88
2022/11/13 01:23:50;;;;;;;39.53;24.70;;;;;;;8.84;85.32;101826.52;1754165;81;20888;-89
2022/11/13 01:26:37;;;;;;;40.40;24.72;;;;;;;8.86;85.45;101829.48;1753890;81;20935;-88
2022/11/13 01:29:22;;;;;;;44.48;25.27;;;;;;;8.89;85.51;101824.59;1754036;81;20922;-87
2022/11/13 01:32:06;;;;;;;39.05;24.40;;;;;;;8.90;85.62;101818.48;1754485;81;20974;-87
2022/11/13 01:34:52;;;;;;;38.92;23.98;;;;;;;8.89;85.78;101826.79;1754364;81;21362;-85
2022/11/13 01:37:38;;;;;;;45.17;26.50;;;;;;;8.89;85.92;101819.37;1753606;81;20986;-86
2022/11/13 01:40:23;;;;;;;34.18;23.32;;;;;;;8.89;86.03;101822.86;1753858;81;21235;-87
2022/11/13 01:43:20;;;;;;;;;;;;;;;8.90;86.22;101825.86;1756393;81;20903;-88
2022/11/13 01:46:26;;;;;;;36.05;25.30;;;;;;;8.93;86.39;101825.75;1752673;81;20091;-88
2022/11/13 01:49:29;;;;;;;40.03;28.92;;;;;;;8.96;86.41;101825.25;1753721;81;20856;-88
2022/11/13 01:52:19;;;;;;;41.50;27.80;;;;;;;8.96;86.57;101816.97;1753531;81;21425;-87
2022/11/13 01:55:13;;;;;;;40.67;28.27;;;;;;;8.98;86.70;101823.02;1754274;81;21226;-87
2022/11/13 01:57:58;;;;;;;45.80;28.13;;;;;;;8.99;86.80;101821.23;1756408;81;20962;-89
2022/11/13 02:00:43;;;;;;;45.15;30.27;;;;;;;8.99;86.97;101811.62;1756161;81;20888;-88
2022/11/13 02:03:28;;;;;;;44.55;29.20;;;;;;;8.98;87.14;101806.00;1756115;81;20900;-88
2022/11/13 02:06:15;;;;;;;41.05;28.67;;;;;;;8.99;87.33;101810.31;1754848;81;21022;-90
2022/11/13 02:08:59;;;;;;;47.75;28.98;;;;;;;9.01;87.41;101816.81;1754971;81;21175;-88
2022/11/13 02:11:45;;;;;;;;;;;;;;;9.03;87.55;101807.15;1756473;81;21035;-88
2022/11/13 02:14:32;;;;;;;39.55;27.50;;;;;;;9.05;87.64;101804.03;1753736;81;20123;-88
2022/11/13 02:17:30;;;;;;;37.28;25.25;;;;;;;9.06;87.80;101803.95;1692736;84;21036;-88
2022/11/13 02:20:15;;;;;;;35.05;24.02;;;;;;;9.09;87.86;101801.25;1692781;84;21481;-87
2022/11/13 02:23:13;;;;;;;41.85;23.75;;;;;;;9.08;87.99;101804.76;1693422;84;21270;-87
2022/11/13 02:25:59;;;;;;;39.45;23.85;;;;;;;9.07;88.08;101807.42;1692968;84;20974;-90
2022/11/13 02:28:44;;;;;;;34.92;23.57;;;;;;;9.06;88.24;101805.27;1673207;84;24014;-88
2022/11/13 02:31:29;;;;;;;38.92;24.23;;;;;;;9.08;88.42;101807.84;1692635;84;21006;-87
2022/11/13 02:34:14;;;;;;;35.55;23.50;;;;;;;9.08;88.53;101800.83;1692900;84;20948;-87
2022/11/13 02:36:59;;;;;;;30.55;21.17;;;;;;;9.09;88.58;101803.87;1692768;84;21235;-88
2022/11/13 02:39:46;;;;;;;30.05;20.55;;;;;;;9.10;88.67;101798.17;1692499;84;20880;-89
2022/11/13 02:42:31;;;;;;;26.52;18.20;;;;;;;9.10;88.80;101788.55;1737677;81;20974;-88
2022/11/13 02:45:18;;;;;;;24.85;16.42;;;;;;;9.10;88.87;101797.71;1726246;81;20974;-89
2022/11/13 02:48:04;;;;;;;28.12;15.75;;;;;;;9.12;88.96;101785.44;1753387;81;20852;-88
2022/11/13 02:50:52;;;;;;;22.80;13.65;;;;;;;9.13;88.95;101784.97;1753458;81;21164;-89
2022/11/13 02:53:36;;;;;;;17.32;13.30;;;;;;;9.13;89.19;101781.05;1755563;81;20880;-89
2022/11/13 02:56:21;;;;;;;;;;;;;;;9.16;89.25;101785.31;1761477;81;20907;-89
2022/11/13 02:59:07;;;;;;;16.02;12.73;;;;;;;9.20;89.28;101782.98;1759223;81;20395;-89
2022/11/13 03:01:54;;;;;;;18.52;12.60;;;;;;;9.22;89.22;101771.55;1758998;81;20879;-90
2022/11/13 03:04:39;;;;;;;16.05;12.80;;;;;;;9.24;89.14;101776.74;1759016;81;21257;-89
2022/11/13 03:07:24;;;;;;;15.20;12.05;;;;;;;9.24;89.09;101780.67;1759588;81;20927;-89
2022/11/13 03:10:11;;;;;;;12.58;10.85;;;;;;;9.23;89.24;101780.28;1758859;81;21487;-89
2022/11/13 03:12:57;;;;;;;14.45;10.50;;;;;;;9.26;89.22;101774.47;1758991;81;20859;-89
2022/11/13 03:15:44;;;;;;;15.05;11.25;;;;;;;9.26;89.22;101771.84;1717035;81;20914;-87
2022/11/13 03:18:30;;;;;;;17.80;10.88;;;;;;;9.29;89.22;101770.45;1758926;81;21256;-88
2022/11/13 03:21:20;;;;;;;19.92;12.20;;;;;;;9.31;89.19;101770.38;1758865;81;20982;-88
2022/11/13 03:24:07;;;;;;;19.60;11.78;;;;;;;9.33;89.26;101770.71;1758847;81;21393;-89
2022/11/13 03:26:54;;;;;;;16.00;10.68;;;;;;;9.36;89.22;101772.39;1758782;81;20974;-88
2022/11/13 03:29:43;;;;;;;18.15;12.40;;;;;;;9.36;89.15;101772.39;1758933;81;20888;-88
2022/11/13 03:32:29;;;;;;;17.45;13.03;;;;;;;9.36;89.14;101776.31;1759092;81;20963;-89
2022/11/13 03:35:14;;;;;;;16.32;12.07;;;;;;;9.39;89.21;101770.11;1758863;81;20971;-90
2022/11/13 03:37:59;;;;;;;;;;;;;;;9.42;89.21;101776.53;1761415;81;20939;-89
2022/11/13 03:40:44;;;;;;;17.17;12.03;;;;;;;9.44;89.08;101772.94;1759502;81;20078;-88
2022/11/13 03:43:29;;;;;;;21.05;12.85;;;;;;;9.44;89.11;101769.48;1758841;81;20993;-89
2022/11/13 03:46:15;;;;;;;19.82;14.13;;;;;;;9.44;89.17;101766.86;1759136;81;21281;-90
2022/11/13 03:49:00;;;;;;;22.77;14.75;;;;;;;9.47;89.32;101762.80;1759148;81;21507;-89
2022/11/13 03:51:46;;;;;;;21.48;14.95;;;;;;;9.48;89.24;101766.69;1759320;81;20887;-90
2022/11/13 03:54:31;;;;;;;;;;;;;;;9.47;89.33;101754.95;1750500;81;20900;-90
2022/11/13 03:57:19;;;;;;;23.25;14.35;;;;;;;9.48;89.42;101754.91;1740740;81;20123;-89
2022/11/13 04:00:05;;;;;;;26.52;16.90;;;;;;;9.48;89.58;101751.44;1740980;82;21095;-89
2022/11/13 04:02:53;;;;;;;25.27;18.00;;;;;;;9.48;89.63;101761.91;1742757;82;20971;-90
2022/11/13 04:05:40;;;;;;;27.62;17.45;;;;;;;9.48;89.80;101759.30;1742845;81;20911;-90
2022/11/13 04:08:25;;;;;;;27.93;18.98;;;;;;;9.51;89.89;101759.17;1742719;81;20952;-88
2022/11/13 04:11:12;;;;;;;24.12;18.30;;;;;;;9.52;89.84;101760.43;1741858;82;20991;-89
2022/11/13 04:13:56;;;;;;;28.20;19.05;;;;;;;9.53;89.82;101766.05;1740404;82;21439;-89
2022/11/13 04:16:43;;;;;;;26.33;18.48;;;;;;;9.52;89.87;101772.22;1740098;82;21406;-88
2022/11/13 04:19:32;;;;;;;27.25;18.35;;;;;;;9.54;89.96;101773.48;1740159;82;21433;-89
2022/11/13 04:22:17;;;;;;;21.45;15.78;;;;;;;9.53;90.02;101771.28;1740258;82;20869;-89
2022/11/13 04:25:05;;;;;;;27.00;18.65;;;;;;;9.57;89.97;101765.95;1740435;81;20856;-87
2022/11/13 04:27:51;;;;;;;27.55;19.57;;;;;;;9.56;89.97;101771.66;1740371;82;22004;-89
2022/11/13 04:30:38;;;;;;;22.80;17.73;;;;;;;9.57;90.06;101777.28;1740306;82;20965;-88
2022/11/13 04:33:23;;;;;;;29.00;18.12;;;;;;;9.58;90.02;101779.44;1740440;82;20888;-89
2022/11/13 04:36:10;;;;;;;24.15;16.10;;;;;;;9.55;90.10;101776.02;1740598;82;21429;-90
2022/11/13 04:38:55;;;;;;;16.75;13.70;;;;;;;9.54;90.19;101776.94;1740631;82;20932;-88
2022/11/13 04:44:32;;;;;;;19.77;13.20;;;;;;;9.50;90.41;101771.41;1727234;82;20952;-88
2022/11/13 04:47:17;;;;;;;12.33;10.53;;;;;;;9.51;90.57;101778.80;1740666;81;21011;-89
2022/11/13 04:50:06;;;;;;;15.93;11.08;;;;;;;9.49;90.66;101777.58;1740876;82;20861;-89
2022/11/13 04:52:55;;;;;;;11.20;9.78;;;;;;;9.45;90.83;101776.41;1740467;82;20987;-90
2022/11/13 04:55:43;;;;;;;10.63;9.53;;;;;;;9.41;91.09;101780.08;1758074;81;21171;-90
2022/11/13 04:58:28;;;;;;;11.30;10.13;;;;;;;9.40;91.34;101771.80;1758951;81;20939;-90
2022/11/13 05:01:15;;;;;;;;;;;;;;;9.40;91.49;101778.34;1762061;81;20848;-87
2022/11/13 05:04:00;;;;;;;9.43;8.43;;;;;;;9.40;91.63;101777.04;1759059;81;20099;-89
2022/11/13 05:06:45;;;;;;;10.08;8.73;;;;;;;9.41;91.78;101781.38;1758964;81;20915;-88
2022/11/13 05:09:30;;;;;;;13.90;8.65;;;;;;;9.43;91.99;101786.11;1759404;81;21227;-90
2022/11/13 05:12:17;;;;;;;11.15;8.80;;;;;;;9.48;92.05;101788.09;1759249;81;20957;-89
2022/11/13 05:15:04;;;;;;;9.78;8.75;;;;;;;9.50;91.98;101784.97;1759700;81;21388;-91
2022/11/13 05:17:49;;;;;;;9.03;7.42;;;;;;;9.49;92.01;101788.48;1759956;81;20978;-90
2022/11/13 05:20:35;;;;;;;8.75;7.80;;;;;;;9.49;92.05;101791.09;1760496;81;20923;-89
2022/11/13 05:23:20;;;;;;;8.28;7.47;;;;;;;9.49;92.18;101793.28;1760286;81;22206;-90
2022/11/13 05:26:08;;;;;;;7.60;6.78;;;;;;;9.49;92.03;101791.09;1759706;81;20938;-89
2022/11/13 05:28:57;;;;;;;7.30;6.37;;;;;;;9.50;92.01;101791.05;1759185;81;20891;-90
2022/11/13 05:31:42;;;;;;;8.20;6.60;;;;;;;9.50;91.95;101788.89;1759160;81;21493;-89
2022/11/13 05:34:27;;;;;;;7.47;6.78;;;;;;;9.53;91.93;101788.77;1759041;81;20864;-87
2022/11/13 05:37:17;;;;;;;8.00;7.17;;;;;;;9.54;91.73;101789.19;1759514;81;21163;-90
2022/11/13 05:40:02;;;;;;;7.95;7.15;;;;;;;9.55;91.63;101786.48;1758992;81;20990;-89
2022/11/13 05:42:47;;;;;;;7.80;5.80;;;;;;;9.58;91.54;101792.53;1759163;81;20951;-90
2022/11/13 05:45:32;;;;;;;8.85;6.65;;;;;;;9.60;91.52;101788.94;1759286;81;20938;-88
2022/11/13 05:48:17;;;;;;;9.30;6.75;;;;;;;9.67;91.56;101792.18;1761560;81;20985;-89
2022/11/13 05:51:12;;;;;;;7.72;6.70;;;;;;;9.70;91.38;101785.54;1761484;81;21115;-88
2022/11/13 05:53:57;;;;;;;;;;;;;;;9.71;91.23;101785.92;1763275;81;20983;-90
2022/11/13 05:56:48;;;;;;;6.80;6.20;;;;;;;9.74;91.07;101784.52;1726941;79;20090;-90
2022/11/13 05:59:37;;;;;;;6.08;5.58;;;;;;;9.75;91.02;101779.20;1706510;84;20959;-90
2022/11/13 06:02:25;;;;;;;7.00;6.40;;;;;;;9.80;90.88;101779.48;1706520;83;21010;-90
2022/11/13 06:05:19;;;;;;;5.95;5.08;;;;;;;9.83;90.58;101785.47;1684887;80;21265;-86
2022/11/13 06:08:04;;;;;;;6.37;5.50;;;;;;;9.88;90.35;101784.83;1685736;84;20971;-90
2022/11/13 06:10:50;;;;;;;5.20;4.70;;;;;;;9.90;89.86;101779.55;1685181;84;20922;-89
2022/11/13 06:13:35;;;;;;;4.80;4.30;;;;;;;9.94;89.83;101786.37;1684783;84;21053;-90
2022/11/13 06:19:23;;;;;;;4.50;4.10;;;;;;;10.04;89.11;101782.47;1684928;85;21140;-89
2022/11/13 06:22:08;;;;;;;4.42;4.03;;;;;;;10.09;88.51;101784.47;1684915;85;21176;-89
2022/11/13 06:24:54;;;;;;;3.95;3.58;;;;;;;10.12;88.10;101793.52;1677704;84;20990;-90
2022/11/13 06:27:40;;;;;;;3.75;3.45;;;;;;;10.17;87.49;101790.25;1676087;84;21005;-90
2022/11/13 06:30:31;;;;;;;4.62;3.45;;;;;;;10.19;86.86;101789.34;1675732;84;21364;-89
2022/11/13 06:33:16;;;;;;;4.37;3.40;;;;;;;10.21;86.49;101790.98;1675364;84;21338;-92
2022/11/13 06:36:03;;;;;;;3.00;2.70;;;;;;;10.22;86.00;101793.99;1675163;84;20966;-90
2022/11/13 06:38:48;;;;;;;3.30;3.00;;;;;;;10.28;85.67;101800.78;1675281;85;21033;-90
2022/11/13 06:41:37;;;;;;;3.55;3.25;;;;;;;10.28;85.08;101798.16;1674949;84;20920;-87
2022/11/13 06:44:22;;;;;;;3.67;3.37;;;;;;;10.27;84.90;101794.69;1675983;84;20982;-90
2022/11/13 06:47:08;;;;;;;3.08;2.85;;;;;;;10.29;84.99;101790.27;1676362;84;21206;-89
2022/11/13 06:49:53;;;;;;;4.22;3.42;;;;;;;10.31;84.83;101791.03;1675550;85;20918;-89
2022/11/13 06:52:40;;;;;;;4.33;3.30;;;;;;;10.35;84.91;101782.13;1675156;84;20967;-92
2022/11/13 06:55:24;;;;;;;;;;;;;;;10.41;84.67;101778.89;1678256;84;21601;-89
2022/11/13 06:58:09;;;;;;;3.80;3.50;;;;;;;10.44;84.61;101769.11;1675306;84;20124;-91
2022/11/13 07:00:54;;;;;;;3.85;3.55;;;;;;;10.47;84.47;101766.38;1675226;85;22119;-91
2022/11/13 07:03:40;;;;;;;5.25;4.03;;;;;;;10.54;84.30;101768.29;1675749;84;21021;-90
2022/11/13 07:06:26;;;;;;;6.08;3.77;;;;;;;10.55;84.03;101764.73;1674996;83;20944;-90
2022/11/13 07:09:14;;;;;;;4.00;3.70;;;;;;;10.55;84.00;101764.73;1678801;82;21015;-91
2022/11/13 07:15:07;;;;;;;8.45;5.17;;;;;;;10.58;83.90;101759.35;1692181;80;20858;-89
2022/11/13 07:17:51;;;;;;;4.85;4.42;;;;;;;10.62;83.85;101758.78;1657268;86;20858;-89
2022/11/13 07:20:44;;;;;;;5.08;4.58;;;;;;;10.65;83.67;101754.27;1653222;85;20842;-91
2022/11/13 07:23:30;;;;;;;4.15;3.75;;;;;;;10.69;83.61;101757.59;1656094;86;20972;-91
2022/11/13 07:26:18;;;;;;;5.00;4.45;;;;;;;10.69;83.47;101754.97;1655945;85;21042;-91
2022/11/13 07:29:05;;;;;;;4.72;3.62;;;;;;;10.72;83.58;101756.17;1656609;86;21847;-90
2022/11/13 07:32:08;;;;;;;3.87;3.58;;;;;;;10.77;83.39;101758.14;1660157;81;21517;-89
2022/11/13 07:35:18;;;;;;;4.58;4.00;;;;;;;10.78;82.87;101763.76;1711364;81;20935;-90
2022/11/13 07:38:03;;;;;;;4.45;3.55;;;;;;;10.77;82.94;101762.07;1715127;83;20895;-91
2022/11/13 07:40:53;;;;;;;3.95;3.08;;;;;;;10.79;82.95;101765.02;1715751;82;21598;-90
2022/11/13 07:43:43;;;;;;;3.47;3.25;;;;;;;10.80;82.78;101767.17;1751705;80;21269;-92
2022/11/13 07:46:29;;;;;;;3.62;3.30;;;;;;;10.81;82.81;101765.43;1744353;80;21453;-92
2022/11/13 07:49:16;;;;;;;5.12;3.58;;;;;;;10.85;82.81;101769.60;1750745;80;20935;-92
2022/11/13 07:52:01;;;;;;;4.60;4.00;;;;;;;10.87;82.44;101774.33;1749924;80;21011;-91
2022/11/13 07:54:46;;;;;;;5.42;4.22;;;;;;;10.87;82.02;101775.64;1750204;80;20978;-92
2022/11/13 07:57:32;;;;;;;4.62;4.22;;;;;;;10.86;81.69;101779.20;1750803;81;21115;-91
2022/11/13 08:00:17;;;;;;;3.55;3.30;;;;;;;10.84;81.48;101776.63;1753251;81;21177;-92
2022/11/13 08:03:11;;;;;;;3.17;2.98;;;;;;;10.82;81.28;101771.91;1752736;81;20927;-92
2022/11/13 08:06:04;;;;;;;4.70;4.30;;;;;;;10.86;80.98;101775.27;1753009;80;20904;-91
2022/11/13 08:08:49;;;;;;;3.65;3.37;;;;;;;10.88;80.51;101777.36;1752691;81;20967;-91
2022/11/13 08:11:34;;;;;;;;;;;;;;;10.92;80.27;101775.01;1755717;80;21072;-90
2022/11/13 08:14:19;;;;;;;3.83;3.45;;;;;;;10.95;79.86;101782.27;1752960;80;20280;-91
2022/11/13 08:17:04;;;;;;;3.92;3.45;;;;;;;10.97;79.63;101781.75;1753280;81;20903;-89
2022/11/13 08:19:49;;;;;;;3.85;3.55;;;;;;;10.99;79.21;101782.53;1752816;80;21437;-90
2022/11/13 08:22:34;;;;;;;3.45;2.95;;;;;;;11.02;78.31;101778.08;1753227;80;20880;-90
2022/11/13 08:25:20;;;;;;;2.85;2.65;;;;;;;11.03;78.63;101778.02;1752736;80;21236;-91
2022/11/13 08:28:05;;;;;;;3.72;3.30;;;;;;;11.09;78.52;101781.67;1753069;80;20925;-90
2022/11/13 08:30:51;;;;;;;7.62;2.45;;;;;;;11.17;78.27;101777.41;1752530;80;20899;-89
2022/11/13 08:33:36;;;;;;;3.45;3.15;;;;;;;11.25;78.05;101770.49;1751781;80;20924;-92
2022/11/13 08:36:20;;;;;;;3.55;2.72;;;;;;;11.31;77.43;101766.29;1753566;80;20951;-93
2022/11/13 08:39:05;;;;;;;2.77;2.67;;;;;;;11.39;77.15;101769.44;1753077;80;21258;-91
2022/11/13 08:41:52;;;;;;;3.05;2.85;;;;;;;11.45;76.50;101773.55;1752403;80;20931;-89
2022/11/13 08:44:39;;;;;;;6.62;2.60;;;;;;;11.48;76.08;101761.60;1752426;82;20912;-90
2022/11/13 08:47:24;;;;;;;3.02;2.72;;;;;;;11.55;75.88;101769.13;1733637;80;20939;-90
2022/11/13 08:50:12;;;;;;;3.85;2.70;;;;;;;11.62;75.68;101756.55;1752691;80;20950;-90
2022/11/13 08:52:58;;;;;;;5.35;2.60;;;;;;;11.70;74.43;101761.47;1752586;80;21469;-92
2022/11/13 08:55:43;;;;;;;2.30;2.20;;;;;;;11.72;74.62;101757.84;1752634;80;21366;-91
2022/11/13 08:58:28;;;;;;;5.35;2.42;;;;;;;11.76;73.88;101761.16;1752481;81;20943;-90
2022/11/13 09:01:13;;;;;;;;;;;;;;;11.76;73.92;101763.36;1755060;80;20852;-90
2022/11/13 09:03:58;;;;;;;2.95;2.75;;;;;;;11.80;73.79;101757.47;1753497;82;20111;-89
2022/11/13 09:06:43;;;;;;;2.60;2.40;;;;;;;11.90;73.55;101761.42;1748432;80;21163;-89
2022/11/13 09:09:29;;;;;;;3.00;2.27;;;;;;;12.00;72.82;101751.30;1752306;80;20994;-88
2022/11/13 09:12:14;;;;;;;2.50;2.30;;;;;;;12.08;72.39;101746.55;1752513;81;20971;-89
2022/11/13 09:15:00;;;;;;;2.45;2.30;;;;;;;12.15;71.64;101742.69;1752700;82;20987;-89
2022/11/13 09:17:45;;;;;;;2.50;2.33;;;;;;;12.22;71.45;101737.98;1752582;80;20860;-89
2022/11/13 09:20:31;;;;;;;3.65;3.02;;;;;;;12.30;70.73;101731.89;1752685;80;21158;-87
2022/11/13 09:23:16;;;;;;;2.40;2.20;;;;;;;12.33;70.58;101731.72;1753047;80;20966;-89
2022/11/13 09:26:02;;;;;;;2.45;2.25;;;;;;;12.43;70.56;101723.77;1752885;80;20888;-90
2022/11/13 09:28:47;;;;;;;2.10;1.90;;;;;;;12.58;70.22;101717.34;1753181;82;21476;-92
2022/11/13 09:31:34;;;;;;;2.35;2.15;;;;;;;12.72;69.89;101717.50;1749688;80;20903;-91
2022/11/13 09:34:19;;;;;;;2.33;2.12;;;;;;;12.90;69.18;101714.38;1755436;81;21259;-91
2022/11/13 09:37:03;;;;;;;2.50;2.17;;;;;;;13.05;68.54;101718.84;1755082;80;20958;-91
2022/11/13 09:39:51;;;;;;;3.08;2.33;;;;;;;13.19;67.97;101727.33;1755587;80;21000;-90
2022/11/13 09:42:36;;;;;;;2.33;1.90;;;;;;;13.31;67.30;101723.20;1754102;82;20938;-92
2022/11/13 09:45:22;;;;;;;1.80;1.70;;;;;;;13.36;66.44;101725.14;1753262;80;20927;-92
2022/11/13 09:48:30;;;;;;;5.33;1.85;;;;;;;13.37;65.85;101725.98;1753904;80;21349;-92
2022/11/13 09:51:27;;;;;;;2.08;1.98;;;;;;;13.41;65.57;101728.84;1754904;80;20884;-92
2022/11/13 09:54:13;;;;;;;1.87;1.77;;;;;;;13.43;64.85;101727.83;1754790;80;20900;-91
2022/11/13 09:57:37;;;;;;;2.25;1.95;;;;;;;13.37;64.54;101726.84;1753978;80;20947;-90
2022/11/13 10:00:22;;;;;;;1.90;1.80;;;;;;;13.28;64.42;101729.97;1725924;82;20860;-92
2022/11/13 10:03:37;;;;;;;5.33;2.75;;;;;;;13.19;65.04;101714.63;1751318;80;21413;-90
2022/11/13 10:06:40;;;;;;;1.77;1.67;;;;;;;13.16;65.38;101711.70;1753465;80;20944;-92
2022/11/13 10:09:49;;;;;;;2.00;1.90;;;;;;;13.34;65.65;101706.38;1753543;80;20892;-90
2022/11/13 10:12:35;;;;;;;1.50;1.40;;;;;;;13.53;65.08;101704.92;1729505;80;21017;-88
2022/11/13 10:15:21;;;;;;;2.15;2.05;;;;;;;13.73;64.58;101708.61;1753619;82;20935;-90
2022/11/13 10:18:14;;;;;;;2.00;1.90;;;;;;;13.83;63.84;101704.53;1754059;81;21002;-88
2022/11/13 10:21:26;;;;;;;1.82;1.72;;;;;;;13.79;63.59;101703.00;1755417;80;21068;-89
2022/11/13 10:24:18;;;;;;;3.87;2.10;;;;;;;13.72;63.70;101694.19;1755320;80;21160;-91
2022/11/13 10:27:08;;;;;;;4.33;2.55;;;;;;;13.64;63.51;101691.52;1755535;80;20970;-91
2022/11/13 10:30:16;;;;;;;4.35;2.22;;;;;;;13.62;63.32;101690.75;1697288;80;20875;-90
2022/11/13 10:33:08;;;;;;;4.83;2.30;;;;;;;13.76;63.17;101693.96;1617964;88;21270;-91
2022/11/13 10:36:22;;;;;;;3.17;2.10;;;;;;;13.97;62.65;101682.65;1607168;88;21046;-89
2022/11/13 10:39:09;;;;;;;2.33;2.12;;;;;;;14.23;62.07;101690.39;1604168;87;20893;-91
2022/11/13 10:41:55;;;;;;;4.87;2.10;;;;;;;14.60;61.60;101689.55;1620211;87;21210;-89
2022/11/13 10:44:44;;;;;;;2.15;2.02;;;;;;;15.04;60.83;101689.97;1630893;88;20952;-90
2022/11/13 10:47:46;;;;;;;2.50;2.30;;;;;;;15.55;58.83;101684.16;1613530;87;20884;-90
2022/11/13 10:50:33;;;;;;;2.10;2.00;;;;;;;15.73;57.42;101691.41;1630665;84;20931;-91
2022/11/13 10:53:19;;;;;;;1.62;1.50;;;;;;;15.90;57.25;101689.00;1610354;87;20973;-91
2022/11/13 10:56:21;;;;;;;1.77;1.62;;;;;;;15.98;56.66;101699.06;1612997;86;21024;-90
2022/11/13 10:59:18;;;;;;;2.60;2.40;;;;;;;15.91;56.22;101689.36;1550224;91;20916;-92
2022/11/13 11:02:25;;;;;;;2.27;2.17;;;;;;;15.67;56.35;101683.38;1541887;91;21389;-93
2022/11/13 11:05:22;;;;;;;1.80;1.70;;;;;;;15.40;56.66;101679.36;1541750;93;20947;-91
2022/11/13 11:08:09;;;;;;;3.30;2.12;;;;;;;15.16;57.58;101677.78;1542055;91;20987;-90
2022/11/13 11:14:26;;;;;;;2.02;1.92;;;;;;;14.95;58.38;101664.13;1541277;91;21003;-90
2022/11/13 11:17:17;;;;;;;;;;;;;;;14.84;58.52;101668.73;1544549;92;21181;-93
2022/11/13 11:20:34;;;;;;;2.20;1.90;;;;;;;14.62;58.69;101655.14;1542504;91;20145;-90
2022/11/13 11:23:46;;;;;;;2.65;2.45;;;;;;;14.44;59.25;101654.43;1594092;88;20969;-90
2022/11/13 11:26:48;;;;;;;2.92;2.30;;;;;;;14.30;60.10;101652.62;1622304;88;20983;-91
2022/11/13 11:29:47;;;;;;;2.33;2.12;;;;;;;14.20;60.66;101658.89;1640654;83;21043;-92
2022/11/13 11:32:50;;;;;;;2.27;1.82;;;;;;;14.18;61.21;101654.64;1708454;83;21116;-89
2022/11/13 11:35:49;;;;;;;1.85;1.75;;;;;;;14.19;61.04;101651.08;1707880;83;21544;-91
2022/11/13 11:38:40;;;;;;;2.33;2.15;;;;;;;14.10;61.31;101645.40;1709929;84;20997;-91
2022/11/13 11:41:39;;;;;;;2.37;2.17;;;;;;;14.02;61.39;101641.03;1710145;84;20993;-92
2022/11/13 11:44:55;;;;;;;3.15;2.45;;;;;;;13.98;61.88;101638.19;1710382;83;20973;-93
2022/11/13 11:47:42;;;;;;;2.67;2.37;;;;;;;14.00;62.00;101633.67;1709974;83;21172;-93
2022/11/13 11:50:42;;;;;;;2.10;1.90;;;;;;;14.05;61.97;101634.27;1711375;83;20936;-92
2022/11/13 11:53:50;;;;;;;4.90;2.17;;;;;;;14.14;61.64;101637.29;1710483;83;20974;-91
2022/11/13 11:56:58;;;;;;;3.37;2.15;;;;;;;14.15;61.51;101634.58;1709962;84;20997;-93
2022/11/13 12:00:06;;;;;;;1.98;1.87;;;;;;;14.16;61.13;101631.45;1710587;83;21024;-91
2022/11/13 12:03:02;;;;;;;3.20;2.30;;;;;;;14.22;61.25;101629.31;1710606;83;20964;-94
2022/11/13 12:06:28;;;;;;;1.95;1.72;;;;;;;14.33;60.88;101626.03;1705109;83;20978;-92
2022/11/13 12:09:36;;;;;;;3.00;2.20;;;;;;;14.36;60.75;101626.32;1710488;83;21017;-94
2022/11/13 12:12:36;;;;;;;2.75;2.40;;;;;;;14.36;60.37;101615.32;1710751;83;20918;-92
2022/11/13 12:15:37;;;;;;;2.40;2.20;;;;;;;14.31;60.69;101616.88;1710244;83;21416;-91
2022/11/13 12:18:49;;;;;;;2.75;2.55;;;;;;;14.28;60.78;101626.79;1710711;83;21269;-93
2022/11/13 12:21:52;;;;;;;3.08;2.40;;;;;;;14.22;60.67;101620.08;1710373;83;20930;-91
2022/11/13 12:25:20;;;;;;;2.70;2.50;;;;;;;14.12;60.87;101620.26;1710686;83;20989;-89
2022/11/13 12:28:22;;;;;;;2.10;1.98;;;;;;;14.05;60.80;101605.27;1710257;83;21431;-92
2022/11/13 12:31:38;;;;;;;2.67;2.45;;;;;;;13.94;61.14;101603.73;1713431;83;20898;-91
2022/11/13 12:34:41;;;;;;;6.72;3.52;;;;;;;13.85;61.46;101608.19;1712784;83;20957;-89
2022/11/13 12:37:49;;;;;;;2.27;1.87;;;;;;;13.75;61.58;101603.08;1712721;83;21001;-89
2022/11/13 12:42:49;;;;;;;4.15;2.33;;;;;;;13.62;62.19;101616.11;1874034;75;22302;-89
2022/11/13 12:45:39;;;;;;;2.50;2.30;;;;;;;13.54;62.15;101610.41;1723746;82;20889;-88
2022/11/13 12:48:43;;;;;;;4.00;3.60;;;;;;;13.43;62.13;101613.68;1723099;82;21553;-94
2022/11/13 12:51:42;;;;;;;3.40;2.65;;;;;;;13.30;62.44;101621.88;1722058;83;21387;-92
2022/11/13 12:54:34;;;;;;;2.75;2.55;;;;;;;13.15;62.79;101621.74;1721167;82;21367;-91
2022/11/13 12:57:26;;;;;;;3.12;2.70;;;;;;;13.06;63.14;101612.56;1721152;82;21388;-92
2022/11/13 13:00:28;;;;;;;3.00;2.55;;;;;;;12.98;63.36;101609.95;1721324;83;21027;-92
2022/11/13 13:03:43;;;;;;;3.30;2.67;;;;;;;12.87;63.69;101607.90;1722419;82;22086;-93
2022/11/13 13:06:53;;;;;;;8.65;4.50;;;;;;;12.75;64.00;101612.05;1717328;83;20889;-92
2022/11/13 13:10:14;;;;;;;7.37;5.00;;;;;;;12.61;64.32;101618.05;1721730;82;21434;-92
2022/11/13 13:13:39;;;;;;;10.90;5.17;;;;;;;12.46;64.80;101621.95;1721841;82;20901;-92
2022/11/13 13:16:27;;;;;;;6.65;5.17;;;;;;;12.30;65.21;101624.05;1727853;83;20861;-91
2022/11/13 13:19:27;;;;;;;3.77;3.47;;;;;;;12.19;65.64;101611.91;1723912;82;20882;-90
2022/11/13 13:22:26;;;;;;;4.65;3.92;;;;;;;12.10;65.91;101612.38;1723887;83;20965;-91
2022/11/13 13:25:28;;;;;;;3.70;3.35;;;;;;;12.03;66.25;101611.84;1723324;83;20901;-88
2022/11/13 13:28:22;;;;;;;6.53;4.62;;;;;;;11.93;66.54;101611.43;1723247;82;20937;-91
2022/11/13 13:31:46;;;;;;;5.35;3.87;;;;;;;11.86;66.92;101606.53;1721830;82;20983;-91